sensor_id;sensor_type;location;lat;lon;timestamp;P1;durP1;ratioP1;P2;durP2;ratioP2
20609;SDS011;10463;52.378;9.688;2023-11-19T00:01:35;2.00;;;1.20;;
20609;SDS011;10463;52.378;9.688;2023-11-19T00:04:20;2.30;;;1.50;;
20609;SDS011;10463;52.378;9.688;2023-11-19T00:07:06;2.10;;;1.33;;
20609;SDS011;10463;52.378;9.688;2023-11-19T00:09:51;2.10;;;1.30;;
20609;SDS011;10463;52.378;9.688;2023-11-19T00:12:37;2.10;;;1.10;;
20609;SDS011;10463;52.378;9.688;2023-11-19T00:15:22;1.83;;;1.20;;
20609;SDS011;10463;52.378;9.688;2023-11-19T00:18:08;2.00;;;1.13;;
20609;SDS011;10463;52.378;9.688;2023-11-19T00:20:52;1.90;;;1.10;;
20609;SDS011;10463;52.378;9.688;2023-11-19T00:23:38;1.80;;;1.07;;
20609;SDS011;10463;52.378;9.688;2023-11-19T00:26:23;1.97;;;1.10;;
20609;SDS011;10463;52.378;9.688;2023-11-19T00:29:10;1.67;;;1.03;;
20609;SDS011;10463;52.378;9.688;2023-11-19T00:31:55;1.93;;;1.20;;
20609;SDS011;10463;52.378;9.688;2023-11-19T00:34:39;1.70;;;1.00;;
20609;SDS011;10463;52.378;9.688;2023-11-19T00:37:24;1.93;;;1.23;;
20609;SDS011;10463;52.378;9.688;2023-11-19T00:40:11;1.80;;;1.07;;
20609;SDS011;10463;52.378;9.688;2023-11-19T00:42:55;2.57;;;1.30;;
20609;SDS011;10463;52.378;9.688;2023-11-19T00:45:40;2.00;;;1.27;;
20609;SDS011;10463;52.378;9.688;2023-11-19T00:48:25;1.60;;;0.90;;
20609;SDS011;10463;52.378;9.688;2023-11-19T00:51:11;1.80;;;1.00;;
20609;SDS011;10463;52.378;9.688;2023-11-19T00:53:56;1.60;;;0.90;;
20609;SDS011;10463;52.378;9.688;2023-11-19T00:56:43;1.93;;;0.90;;
20609;SDS011;10463;52.378;9.688;2023-11-19T00:59:28;1.67;;;0.90;;
20609;SDS011;10463;52.378;9.688;2023-11-19T01:02:13;2.13;;;1.10;;
20609;SDS011;10463;52.378;9.688;2023-11-19T01:04:58;1.70;;;1.20;;
20609;SDS011;10463;52.378;9.688;2023-11-19T01:07:42;1.83;;;1.10;;
20609;SDS011;10463;52.378;9.688;2023-11-19T01:10:27;1.53;;;0.83;;
20609;SDS011;10463;52.378;9.688;2023-11-19T01:13:14;1.50;;;0.80;;
20609;SDS011;10463;52.378;9.688;2023-11-19T01:15:58;1.40;;;0.80;;
20609;SDS011;10463;52.378;9.688;2023-11-19T01:18:43;1.67;;;0.83;;
20609;SDS011;10463;52.378;9.688;2023-11-19T01:21:28;1.60;;;0.90;;
20609;SDS011;10463;52.378;9.688;2023-11-19T01:24:12;1.47;;;0.90;;
20609;SDS011;10463;52.378;9.688;2023-11-19T01:26:58;1.50;;;0.90;;
20609;SDS011;10463;52.378;9.688;2023-11-19T01:29:45;1.70;;;1.07;;
20609;SDS011;10463;52.378;9.688;2023-11-19T01:32:29;1.30;;;0.80;;
20609;SDS011;10463;52.378;9.688;2023-11-19T01:35:14;1.50;;;0.80;;
20609;SDS011;10463;52.378;9.688;2023-11-19T01:37:59;1.70;;;0.90;;
20609;SDS011;10463;52.378;9.688;2023-11-19T01:40:43;1.53;;;0.83;;
20609;SDS011;10463;52.378;9.688;2023-11-19T01:43:32;1.70;;;0.93;;
20609;SDS011;10463;52.378;9.688;2023-11-19T01:46:21;1.50;;;0.77;;
20609;SDS011;10463;52.378;9.688;2023-11-19T01:49:06;1.50;;;0.73;;
20609;SDS011;10463;52.378;9.688;2023-11-19T01:51:53;1.70;;;0.87;;
20609;SDS011;10463;52.378;9.688;2023-11-19T01:54:37;1.60;;;0.90;;
20609;SDS011;10463;52.378;9.688;2023-11-19T01:57:22;1.50;;;0.80;;
20609;SDS011;10463;52.378;9.688;2023-11-19T02:00:08;1.50;;;0.80;;
20609;SDS011;10463;52.378;9.688;2023-11-19T02:03:02;1.50;;;0.80;;
20609;SDS011;10463;52.378;9.688;2023-11-19T02:05:48;1.40;;;0.80;;
20609;SDS011;10463;52.378;9.688;2023-11-19T02:08:35;1.90;;;1.07;;
20609;SDS011;10463;52.378;9.688;2023-11-19T02:11:19;1.50;;;0.90;;
20609;SDS011;10463;52.378;9.688;2023-11-19T02:14:04;1.87;;;0.90;;
20609;SDS011;10463;52.378;9.688;2023-11-19T02:16:49;1.50;;;0.87;;
20609;SDS011;10463;52.378;9.688;2023-11-19T02:19:35;1.30;;;0.70;;
20609;SDS011;10463;52.378;9.688;2023-11-19T02:22:20;1.93;;;0.90;;
20609;SDS011;10463;52.378;9.688;2023-11-19T02:25:06;1.83;;;0.80;;
20609;SDS011;10463;52.378;9.688;2023-11-19T02:27:59;1.87;;;0.90;;
20609;SDS011;10463;52.378;9.688;2023-11-19T02:30:45;1.40;;;0.80;;
20609;SDS011;10463;52.378;9.688;2023-11-19T02:33:30;1.47;;;0.70;;
20609;SDS011;10463;52.378;9.688;2023-11-19T02:36:15;1.40;;;0.70;;
20609;SDS011;10463;52.378;9.688;2023-11-19T02:39:00;1.40;;;0.77;;
20609;SDS011;10463;52.378;9.688;2023-11-19T02:41:47;1.87;;;0.87;;
20609;SDS011;10463;52.378;9.688;2023-11-19T02:44:36;1.53;;;0.83;;
20609;SDS011;10463;52.378;9.688;2023-11-19T02:47:20;1.77;;;0.73;;
20609;SDS011;10463;52.378;9.688;2023-11-19T02:50:08;1.37;;;0.70;;
20609;SDS011;10463;52.378;9.688;2023-11-19T02:52:58;1.60;;;0.90;;
20609;SDS011;10463;52.378;9.688;2023-11-19T02:55:42;1.50;;;0.80;;
20609;SDS011;10463;52.378;9.688;2023-11-19T02:58:32;1.40;;;0.80;;
20609;SDS011;10463;52.378;9.688;2023-11-19T03:01:23;1.40;;;0.80;;
20609;SDS011;10463;52.378;9.688;2023-11-19T03:04:13;1.60;;;0.80;;
20609;SDS011;10463;52.378;9.688;2023-11-19T03:07:01;1.40;;;0.70;;
20609;SDS011;10463;52.378;9.688;2023-11-19T03:09:46;1.20;;;0.60;;
20609;SDS011;10463;52.378;9.688;2023-11-19T03:12:30;1.47;;;0.77;;
20609;SDS011;10463;52.378;9.688;2023-11-19T03:15:15;1.50;;;0.70;;
20609;SDS011;10463;52.378;9.688;2023-11-19T03:18:01;1.43;;;0.67;;
20609;SDS011;10463;52.378;9.688;2023-11-19T03:23:42;1.20;;;0.60;;
20609;SDS011;10463;52.378;9.688;2023-11-19T03:26:27;1.60;;;0.80;;
20609;SDS011;10463;52.378;9.688;2023-11-19T03:29:11;1.60;;;0.80;;
20609;SDS011;10463;52.378;9.688;2023-11-19T03:31:56;2.00;;;0.70;;
20609;SDS011;10463;52.378;9.688;2023-11-19T03:34:43;1.30;;;0.70;;
20609;SDS011;10463;52.378;9.688;2023-11-19T03:37:28;1.30;;;0.70;;
20609;SDS011;10463;52.378;9.688;2023-11-19T03:40:12;1.60;;;0.70;;
20609;SDS011;10463;52.378;9.688;2023-11-19T03:42:58;1.60;;;0.80;;
20609;SDS011;10463;52.378;9.688;2023-11-19T03:45:43;1.50;;;0.70;;
20609;SDS011;10463;52.378;9.688;2023-11-19T03:48:27;1.70;;;0.77;;
20609;SDS011;10463;52.378;9.688;2023-11-19T03:54:18;1.30;;;0.70;;
20609;SDS011;10463;52.378;9.688;2023-11-19T03:57:02;1.50;;;0.77;;
20609;SDS011;10463;52.378;9.688;2023-11-19T03:59:48;1.53;;;0.80;;
20609;SDS011;10463;52.378;9.688;2023-11-19T04:02:32;1.30;;;0.67;;
20609;SDS011;10463;52.378;9.688;2023-11-19T04:05:17;1.47;;;0.67;;
20609;SDS011;10463;52.378;9.688;2023-11-19T04:08:03;1.40;;;0.70;;
20609;SDS011;10463;52.378;9.688;2023-11-19T04:10:49;1.30;;;0.60;;
20609;SDS011;10463;52.378;9.688;2023-11-19T04:13:34;1.30;;;0.70;;
20609;SDS011;10463;52.378;9.688;2023-11-19T04:16:18;1.40;;;0.80;;
20609;SDS011;10463;52.378;9.688;2023-11-19T04:19:03;1.40;;;0.60;;
20609;SDS011;10463;52.378;9.688;2023-11-19T04:21:48;1.30;;;0.70;;
20609;SDS011;10463;52.378;9.688;2023-11-19T04:24:32;1.50;;;0.73;;
20609;SDS011;10463;52.378;9.688;2023-11-19T04:27:18;1.40;;;0.70;;
20609;SDS011;10463;52.378;9.688;2023-11-19T04:30:03;1.20;;;0.60;;
20609;SDS011;10463;52.378;9.688;2023-11-19T04:32:49;1.30;;;0.70;;
20609;SDS011;10463;52.378;9.688;2023-11-19T04:35:34;1.30;;;0.70;;
20609;SDS011;10463;52.378;9.688;2023-11-19T04:38:19;1.50;;;0.70;;
20609;SDS011;10463;52.378;9.688;2023-11-19T04:41:04;1.30;;;0.70;;
20609;SDS011;10463;52.378;9.688;2023-11-19T04:43:50;1.30;;;0.70;;
20609;SDS011;10463;52.378;9.688;2023-11-19T04:46:35;1.23;;;0.60;;
20609;SDS011;10463;52.378;9.688;2023-11-19T04:49:20;2.10;;;0.90;;
20609;SDS011;10463;52.378;9.688;2023-11-19T04:52:04;1.37;;;0.70;;
20609;SDS011;10463;52.378;9.688;2023-11-19T04:54:49;1.97;;;0.80;;
20609;SDS011;10463;52.378;9.688;2023-11-19T04:57:33;1.30;;;0.70;;
20609;SDS011;10463;52.378;9.688;2023-11-19T05:00:19;1.40;;;0.70;;
20609;SDS011;10463;52.378;9.688;2023-11-19T05:03:05;1.40;;;0.80;;
20609;SDS011;10463;52.378;9.688;2023-11-19T05:05:50;1.33;;;0.60;;
20609;SDS011;10463;52.378;9.688;2023-11-19T05:08:35;1.30;;;0.80;;
20609;SDS011;10463;52.378;9.688;2023-11-19T05:11:20;1.30;;;0.70;;
20609;SDS011;10463;52.378;9.688;2023-11-19T05:14:04;1.30;;;0.70;;
20609;SDS011;10463;52.378;9.688;2023-11-19T05:16:50;1.40;;;0.93;;
20609;SDS011;10463;52.378;9.688;2023-11-19T05:19:35;2.00;;;0.67;;
20609;SDS011;10463;52.378;9.688;2023-11-19T05:22:20;1.43;;;0.70;;
20609;SDS011;10463;52.378;9.688;2023-11-19T05:25:05;1.30;;;0.60;;
20609;SDS011;10463;52.378;9.688;2023-11-19T05:27:50;1.53;;;0.80;;
20609;SDS011;10463;52.378;9.688;2023-11-19T05:30:35;1.43;;;0.60;;
20609;SDS011;10463;52.378;9.688;2023-11-19T05:33:21;1.23;;;0.60;;
20609;SDS011;10463;52.378;9.688;2023-11-19T05:36:06;1.43;;;0.90;;
20609;SDS011;10463;52.378;9.688;2023-11-19T05:38:51;1.40;;;0.60;;
20609;SDS011;10463;52.378;9.688;2023-11-19T05:41:36;1.50;;;0.80;;
20609;SDS011;10463;52.378;9.688;2023-11-19T05:44:20;1.40;;;0.67;;
20609;SDS011;10463;52.378;9.688;2023-11-19T05:47:05;1.20;;;0.60;;
20609;SDS011;10463;52.378;9.688;2023-11-19T05:49:52;1.87;;;0.83;;
20609;SDS011;10463;52.378;9.688;2023-11-19T05:52:37;2.27;;;0.70;;
20609;SDS011;10463;52.378;9.688;2023-11-19T05:55:21;1.50;;;0.70;;
20609;SDS011;10463;52.378;9.688;2023-11-19T05:58:08;2.03;;;0.70;;
20609;SDS011;10463;52.378;9.688;2023-11-19T06:00:55;1.60;;;0.80;;
20609;SDS011;10463;52.378;9.688;2023-11-19T06:03:40;2.07;;;0.90;;
20609;SDS011;10463;52.378;9.688;2023-11-19T06:06:29;2.50;;;0.97;;
20609;SDS011;10463;52.378;9.688;2023-11-19T06:09:14;1.50;;;0.80;;
20609;SDS011;10463;52.378;9.688;2023-11-19T06:11:58;1.50;;;0.80;;
20609;SDS011;10463;52.378;9.688;2023-11-19T06:14:45;1.50;;;0.83;;
20609;SDS011;10463;52.378;9.688;2023-11-19T06:17:29;1.30;;;0.70;;
20609;SDS011;10463;52.378;9.688;2023-11-19T06:20:14;2.70;;;0.90;;
20609;SDS011;10463;52.378;9.688;2023-11-19T06:23:00;1.40;;;0.80;;
20609;SDS011;10463;52.378;9.688;2023-11-19T06:25:45;1.30;;;0.70;;
20609;SDS011;10463;52.378;9.688;2023-11-19T06:28:29;1.90;;;1.10;;
20609;SDS011;10463;52.378;9.688;2023-11-19T06:31:14;1.40;;;0.90;;
20609;SDS011;10463;52.378;9.688;2023-11-19T06:33:59;2.47;;;1.00;;
20609;SDS011;10463;52.378;9.688;2023-11-19T06:36:44;1.63;;;0.90;;
20609;SDS011;10463;52.378;9.688;2023-11-19T06:39:30;1.67;;;0.80;;
20609;SDS011;10463;52.378;9.688;2023-11-19T06:42:14;1.30;;;0.70;;
20609;SDS011;10463;52.378;9.688;2023-11-19T06:44:59;1.40;;;0.80;;
20609;SDS011;10463;52.378;9.688;2023-11-19T06:47:43;1.70;;;0.80;;
20609;SDS011;10463;52.378;9.688;2023-11-19T06:50:28;2.43;;;0.90;;
20609;SDS011;10463;52.378;9.688;2023-11-19T06:53:13;1.50;;;0.80;;
20609;SDS011;10463;52.378;9.688;2023-11-19T06:55:59;1.90;;;1.00;;
20609;SDS011;10463;52.378;9.688;2023-11-19T06:58:44;2.03;;;0.80;;
20609;SDS011;10463;52.378;9.688;2023-11-19T07:01:34;1.47;;;0.70;;
20609;SDS011;10463;52.378;9.688;2023-11-19T07:04:21;1.30;;;0.70;;
20609;SDS011;10463;52.378;9.688;2023-11-19T07:07:06;2.03;;;0.80;;
20609;SDS011;10463;52.378;9.688;2023-11-19T07:09:50;1.90;;;0.80;;
20609;SDS011;10463;52.378;9.688;2023-11-19T07:12:36;1.50;;;0.80;;
20609;SDS011;10463;52.378;9.688;2023-11-19T07:15:21;1.57;;;0.80;;
20609;SDS011;10463;52.378;9.688;2023-11-19T07:18:06;1.60;;;1.10;;
20609;SDS011;10463;52.378;9.688;2023-11-19T07:20:50;2.00;;;0.80;;
20609;SDS011;10463;52.378;9.688;2023-11-19T07:23:35;1.80;;;0.80;;
20609;SDS011;10463;52.378;9.688;2023-11-19T07:26:20;1.53;;;0.87;;
20609;SDS011;10463;52.378;9.688;2023-11-19T07:29:06;1.67;;;0.70;;
20609;SDS011;10463;52.378;9.688;2023-11-19T07:31:51;1.60;;;0.80;;
20609;SDS011;10463;52.378;9.688;2023-11-19T07:34:35;1.80;;;1.10;;
20609;SDS011;10463;52.378;9.688;2023-11-19T07:37:20;2.47;;;1.13;;
20609;SDS011;10463;52.378;9.688;2023-11-19T07:40:06;3.83;;;0.90;;
20609;SDS011;10463;52.378;9.688;2023-11-19T07:42:52;1.50;;;0.70;;
20609;SDS011;10463;52.378;9.688;2023-11-19T07:45:39;3.07;;;1.17;;
20609;SDS011;10463;52.378;9.688;2023-11-19T07:48:24;2.73;;;1.07;;
20609;SDS011;10463;52.378;9.688;2023-11-19T07:51:10;2.00;;;1.10;;
20609;SDS011;10463;52.378;9.688;2023-11-19T07:53:56;2.03;;;1.00;;
20609;SDS011;10463;52.378;9.688;2023-11-19T07:56:40;3.00;;;1.10;;
20609;SDS011;10463;52.378;9.688;2023-11-19T07:59:25;2.30;;;1.00;;
20609;SDS011;10463;52.378;9.688;2023-11-19T08:02:11;2.00;;;1.00;;
20609;SDS011;10463;52.378;9.688;2023-11-19T08:04:56;3.97;;;1.00;;
20609;SDS011;10463;52.378;9.688;2023-11-19T08:07:41;2.77;;;1.00;;
20609;SDS011;10463;52.378;9.688;2023-11-19T08:10:26;2.07;;;1.20;;
20609;SDS011;10463;52.378;9.688;2023-11-19T08:13:11;3.17;;;1.27;;
20609;SDS011;10463;52.378;9.688;2023-11-19T08:15:56;4.63;;;1.33;;
20609;SDS011;10463;52.378;9.688;2023-11-19T08:18:44;2.80;;;1.17;;
20609;SDS011;10463;52.378;9.688;2023-11-19T08:21:28;3.30;;;1.20;;
20609;SDS011;10463;52.378;9.688;2023-11-19T08:24:13;2.13;;;1.00;;
20609;SDS011;10463;52.378;9.688;2023-11-19T08:26:57;1.80;;;0.90;;
20609;SDS011;10463;52.378;9.688;2023-11-19T08:29:42;3.07;;;1.23;;
20609;SDS011;10463;52.378;9.688;2023-11-19T08:32:26;2.80;;;1.00;;
20609;SDS011;10463;52.378;9.688;2023-11-19T08:35:13;2.33;;;1.03;;
20609;SDS011;10463;52.378;9.688;2023-11-19T08:37:58;2.47;;;1.20;;
20609;SDS011;10463;52.378;9.688;2023-11-19T08:40:43;3.70;;;1.07;;
20609;SDS011;10463;52.378;9.688;2023-11-19T08:43:27;2.10;;;1.10;;
20609;SDS011;10463;52.378;9.688;2023-11-19T08:46:13;3.13;;;1.07;;
20609;SDS011;10463;52.378;9.688;2023-11-19T08:48:57;2.40;;;1.10;;
20609;SDS011;10463;52.378;9.688;2023-11-19T08:51:43;2.27;;;1.10;;
20609;SDS011;10463;52.378;9.688;2023-11-19T08:54:29;2.73;;;1.20;;
20609;SDS011;10463;52.378;9.688;2023-11-19T08:57:13;2.87;;;1.23;;
20609;SDS011;10463;52.378;9.688;2023-11-19T08:59:58;2.60;;;1.20;;
20609;SDS011;10463;52.378;9.688;2023-11-19T09:02:43;3.80;;;1.20;;
20609;SDS011;10463;52.378;9.688;2023-11-19T09:05:27;4.53;;;1.40;;
20609;SDS011;10463;52.378;9.688;2023-11-19T09:08:13;4.07;;;1.20;;
20609;SDS011;10463;52.378;9.688;2023-11-19T09:10:58;4.77;;;1.97;;
20609;SDS011;10463;52.378;9.688;2023-11-19T09:13:42;3.70;;;1.70;;
20609;SDS011;10463;52.378;9.688;2023-11-19T09:16:29;4.63;;;1.43;;
20609;SDS011;10463;52.378;9.688;2023-11-19T09:19:13;4.37;;;1.47;;
20609;SDS011;10463;52.378;9.688;2023-11-19T09:21:58;3.37;;;1.43;;
20609;SDS011;10463;52.378;9.688;2023-11-19T09:24:44;4.20;;;1.80;;
20609;SDS011;10463;52.378;9.688;2023-11-19T09:27:29;1.60;;;1.10;;
20609;SDS011;10463;52.378;9.688;2023-11-19T09:30:13;2.47;;;1.73;;
20609;SDS011;10463;52.378;9.688;2023-11-19T09:32:58;2.80;;;1.10;;
20609;SDS011;10463;52.378;9.688;2023-11-19T09:35:43;2.47;;;1.30;;
20609;SDS011;10463;52.378;9.688;2023-11-19T09:38:28;3.30;;;1.40;;
20609;SDS011;10463;52.378;9.688;2023-11-19T09:41:14;4.97;;;1.40;;
20609;SDS011;10463;52.378;9.688;2023-11-19T09:44:00;2.73;;;1.30;;
20609;SDS011;10463;52.378;9.688;2023-11-19T09:46:45;3.23;;;1.50;;
20609;SDS011;10463;52.378;9.688;2023-11-19T09:49:30;2.30;;;1.37;;
20609;SDS011;10463;52.378;9.688;2023-11-19T09:52:15;5.00;;;1.83;;
20609;SDS011;10463;52.378;9.688;2023-11-19T09:54:59;3.57;;;1.80;;
20609;SDS011;10463;52.378;9.688;2023-11-19T09:57:46;2.50;;;1.70;;
20609;SDS011;10463;52.378;9.688;2023-11-19T10:00:33;3.27;;;1.90;;
20609;SDS011;10463;52.378;9.688;2023-11-19T10:03:17;4.17;;;1.83;;
20609;SDS011;10463;52.378;9.688;2023-11-19T10:06:03;3.13;;;1.67;;
20609;SDS011;10463;52.378;9.688;2023-11-19T10:08:48;4.17;;;2.43;;
20609;SDS011;10463;52.378;9.688;2023-11-19T10:11:32;3.93;;;1.93;;
20609;SDS011;10463;52.378;9.688;2023-11-19T10:14:19;4.87;;;2.53;;
20609;SDS011;10463;52.378;9.688;2023-11-19T10:17:07;4.20;;;2.13;;
20609;SDS011;10463;52.378;9.688;2023-11-19T10:19:52;4.20;;;2.40;;
20609;SDS011;10463;52.378;9.688;2023-11-19T10:22:36;4.80;;;2.30;;
20609;SDS011;10463;52.378;9.688;2023-11-19T10:25:22;5.03;;;2.83;;
20609;SDS011;10463;52.378;9.688;2023-11-19T10:28:08;4.37;;;2.33;;
20609;SDS011;10463;52.378;9.688;2023-11-19T10:30:56;3.87;;;2.27;;
20609;SDS011;10463;52.378;9.688;2023-11-19T10:33:41;6.60;;;2.50;;
20609;SDS011;10463;52.378;9.688;2023-11-19T10:36:37;5.30;;;2.70;;
20609;SDS011;10463;52.378;9.688;2023-11-19T10:39:24;3.60;;;2.40;;
20609;SDS011;10463;52.378;9.688;2023-11-19T10:42:32;3.50;;;2.30;;
20609;SDS011;10463;52.378;9.688;2023-11-19T10:45:23;4.80;;;2.43;;
20609;SDS011;10463;52.378;9.688;2023-11-19T10:48:09;3.93;;;2.07;;
20609;SDS011;10463;52.378;9.688;2023-11-19T10:50:56;3.03;;;2.50;;
20609;SDS011;10463;52.378;9.688;2023-11-19T10:53:41;5.33;;;3.43;;
20609;SDS011;10463;52.378;9.688;2023-11-19T10:56:30;5.80;;;3.00;;
20609;SDS011;10463;52.378;9.688;2023-11-19T10:59:15;4.50;;;2.97;;
20609;SDS011;10463;52.378;9.688;2023-11-19T11:02:03;5.30;;;3.23;;
20609;SDS011;10463;52.378;9.688;2023-11-19T11:04:55;4.60;;;2.90;;
20609;SDS011;10463;52.378;9.688;2023-11-19T11:07:40;5.43;;;2.90;;
20609;SDS011;10463;52.378;9.688;2023-11-19T11:10:28;3.40;;;2.20;;
20609;SDS011;10463;52.378;9.688;2023-11-19T11:13:18;3.67;;;2.50;;
20609;SDS011;10463;52.378;9.688;2023-11-19T11:16:03;3.63;;;2.47;;
20609;SDS011;10463;52.378;9.688;2023-11-19T11:18:51;4.93;;;3.20;;
20609;SDS011;10463;52.378;9.688;2023-11-19T11:21:38;5.40;;;3.37;;
20609;SDS011;10463;52.378;9.688;2023-11-19T11:25:00;5.50;;;3.03;;
20609;SDS011;10463;52.378;9.688;2023-11-19T11:28:18;4.83;;;2.90;;
20609;SDS011;10463;52.378;9.688;2023-11-19T11:31:20;4.47;;;2.97;;
20609;SDS011;10463;52.378;9.688;2023-11-19T11:34:43;4.00;;;2.63;;
20609;SDS011;10463;52.378;9.688;2023-11-19T11:37:41;4.67;;;2.40;;
20609;SDS011;10463;52.378;9.688;2023-11-19T11:40:32;5.37;;;3.10;;
20609;SDS011;10463;52.378;9.688;2023-11-19T11:43:43;4.10;;;2.60;;
20609;SDS011;10463;52.378;9.688;2023-11-19T11:46:55;3.67;;;2.37;;
20609;SDS011;10463;52.378;9.688;2023-11-19T11:49:40;4.30;;;2.40;;
20609;SDS011;10463;52.378;9.688;2023-11-19T11:52:25;4.77;;;2.70;;
20609;SDS011;10463;52.378;9.688;2023-11-19T11:55:11;4.23;;;2.63;;
20609;SDS011;10463;52.378;9.688;2023-11-19T11:57:55;4.50;;;2.60;;
20609;SDS011;10463;52.378;9.688;2023-11-19T12:00:40;6.67;;;2.60;;
20609;SDS011;10463;52.378;9.688;2023-11-19T12:03:27;5.57;;;2.57;;
20609;SDS011;10463;52.378;9.688;2023-11-19T12:06:14;3.53;;;2.23;;
20609;SDS011;10463;52.378;9.688;2023-11-19T12:08:59;5.63;;;2.97;;
20609;SDS011;10463;52.378;9.688;2023-11-19T12:11:48;3.80;;;2.17;;
20609;SDS011;10463;52.378;9.688;2023-11-19T12:15:10;3.63;;;2.17;;
20609;SDS011;10463;52.378;9.688;2023-11-19T12:17:55;5.23;;;2.67;;
20609;SDS011;10463;52.378;9.688;2023-11-19T12:20:40;4.50;;;2.50;;
20609;SDS011;10463;52.378;9.688;2023-11-19T12:23:27;3.80;;;2.30;;
20609;SDS011;10463;52.378;9.688;2023-11-19T12:26:35;4.00;;;2.17;;
20609;SDS011;10463;52.378;9.688;2023-11-19T12:29:23;4.70;;;2.63;;
20609;SDS011;10463;52.378;9.688;2023-11-19T12:32:08;3.53;;;2.50;;
20609;SDS011;10463;52.378;9.688;2023-11-19T12:34:52;3.13;;;2.40;;
20609;SDS011;10463;52.378;9.688;2023-11-19T12:37:41;4.57;;;2.30;;
20609;SDS011;10463;52.378;9.688;2023-11-19T12:40:26;4.77;;;2.63;;
20609;SDS011;10463;52.378;9.688;2023-11-19T12:43:21;2.90;;;2.40;;
20609;SDS011;10463;52.378;9.688;2023-11-19T12:46:18;6.00;;;2.90;;
20609;SDS011;10463;52.378;9.688;2023-11-19T12:49:06;5.10;;;2.60;;
20609;SDS011;10463;52.378;9.688;2023-11-19T12:51:51;7.30;;;2.90;;
20609;SDS011;10463;52.378;9.688;2023-11-19T12:54:35;3.93;;;2.60;;
20609;SDS011;10463;52.378;9.688;2023-11-19T12:57:20;5.63;;;3.13;;
20609;SDS011;10463;52.378;9.688;2023-11-19T13:00:20;4.10;;;2.63;;
20609;SDS011;10463;52.378;9.688;2023-11-19T13:03:07;6.33;;;3.43;;
20609;SDS011;10463;52.378;9.688;2023-11-19T13:05:52;5.47;;;2.80;;
20609;SDS011;10463;52.378;9.688;2023-11-19T13:08:47;6.77;;;2.87;;
20609;SDS011;10463;52.378;9.688;2023-11-19T13:11:35;5.97;;;4.17;;
20609;SDS011;10463;52.378;9.688;2023-11-19T13:14:20;4.37;;;3.60;;
20609;SDS011;10463;52.378;9.688;2023-11-19T13:17:07;5.17;;;2.87;;
20609;SDS011;10463;52.378;9.688;2023-11-19T13:19:53;8.97;;;3.30;;
20609;SDS011;10463;52.378;9.688;2023-11-19T13:22:53;5.23;;;2.80;;
20609;SDS011;10463;52.378;9.688;2023-11-19T13:25:41;6.03;;;3.00;;
20609;SDS011;10463;52.378;9.688;2023-11-19T13:28:27;6.70;;;3.50;;
20609;SDS011;10463;52.378;9.688;2023-11-19T13:31:13;5.93;;;3.53;;
20609;SDS011;10463;52.378;9.688;2023-11-19T13:33:58;4.80;;;2.90;;
20609;SDS011;10463;52.378;9.688;2023-11-19T13:36:44;7.30;;;3.50;;
20609;SDS011;10463;52.378;9.688;2023-11-19T13:39:28;4.37;;;2.97;;
20609;SDS011;10463;52.378;9.688;2023-11-19T13:42:13;5.40;;;3.63;;
20609;SDS011;10463;52.378;9.688;2023-11-19T13:44:57;5.60;;;3.40;;
20609;SDS011;10463;52.378;9.688;2023-11-19T13:47:43;7.00;;;4.33;;
20609;SDS011;10463;52.378;9.688;2023-11-19T13:50:29;5.63;;;3.63;;
20609;SDS011;10463;52.378;9.688;2023-11-19T13:53:14;5.83;;;3.23;;
20609;SDS011;10463;52.378;9.688;2023-11-19T13:55:59;5.63;;;3.53;;
20609;SDS011;10463;52.378;9.688;2023-11-19T13:58:44;5.63;;;3.10;;
20609;SDS011;10463;52.378;9.688;2023-11-19T14:01:28;5.63;;;3.53;;
20609;SDS011;10463;52.378;9.688;2023-11-19T14:04:13;5.37;;;2.93;;
20609;SDS011;10463;52.378;9.688;2023-11-19T14:06:57;4.37;;;2.70;;
20609;SDS011;10463;52.378;9.688;2023-11-19T14:09:43;5.13;;;2.87;;
20609;SDS011;10463;52.378;9.688;2023-11-19T14:12:29;5.93;;;2.53;;
20609;SDS011;10463;52.378;9.688;2023-11-19T14:15:14;5.17;;;3.17;;
20609;SDS011;10463;52.378;9.688;2023-11-19T14:18:01;4.50;;;2.53;;
20609;SDS011;10463;52.378;9.688;2023-11-19T14:20:47;5.27;;;2.67;;
20609;SDS011;10463;52.378;9.688;2023-11-19T14:23:31;4.77;;;2.87;;
20609;SDS011;10463;52.378;9.688;2023-11-19T14:26:18;5.40;;;3.00;;
20609;SDS011;10463;52.378;9.688;2023-11-19T14:29:02;4.70;;;2.63;;
20609;SDS011;10463;52.378;9.688;2023-11-19T14:31:47;3.93;;;2.63;;
20609;SDS011;10463;52.378;9.688;2023-11-19T14:34:32;4.30;;;2.70;;
20609;SDS011;10463;52.378;9.688;2023-11-19T14:37:17;4.27;;;2.87;;
20609;SDS011;10463;52.378;9.688;2023-11-19T14:40:01;3.93;;;2.37;;
20609;SDS011;10463;52.378;9.688;2023-11-19T14:42:51;4.33;;;2.90;;
20609;SDS011;10463;52.378;9.688;2023-11-19T14:45:36;4.83;;;2.60;;
20609;SDS011;10463;52.378;9.688;2023-11-19T14:48:21;4.80;;;2.60;;
20609;SDS011;10463;52.378;9.688;2023-11-19T14:51:05;4.50;;;2.63;;
20609;SDS011;10463;52.378;9.688;2023-11-19T14:53:50;5.10;;;2.57;;
20609;SDS011;10463;52.378;9.688;2023-11-19T14:56:35;6.23;;;3.43;;
20609;SDS011;10463;52.378;9.688;2023-11-19T14:59:21;5.43;;;2.63;;
20609;SDS011;10463;52.378;9.688;2023-11-19T15:02:06;4.00;;;2.20;;
20609;SDS011;10463;52.378;9.688;2023-11-19T15:04:50;7.83;;;2.90;;
20609;SDS011;10463;52.378;9.688;2023-11-19T15:07:35;5.07;;;2.80;;
20609;SDS011;10463;52.378;9.688;2023-11-19T15:10:19;2.67;;;1.90;;
20609;SDS011;10463;52.378;9.688;2023-11-19T15:13:05;3.50;;;2.13;;
20609;SDS011;10463;52.378;9.688;2023-11-19T15:15:51;4.20;;;2.20;;
20609;SDS011;10463;52.378;9.688;2023-11-19T15:18:36;3.90;;;2.40;;
20609;SDS011;10463;52.378;9.688;2023-11-19T15:21:21;3.47;;;2.47;;
20609;SDS011;10463;52.378;9.688;2023-11-19T15:24:07;4.63;;;2.30;;
20609;SDS011;10463;52.378;9.688;2023-11-19T15:26:52;3.80;;;2.77;;
20609;SDS011;10463;52.378;9.688;2023-11-19T15:29:37;6.50;;;4.00;;
20609;SDS011;10463;52.378;9.688;2023-11-19T15:32:24;5.40;;;3.70;;
20609;SDS011;10463;52.378;9.688;2023-11-19T15:35:09;5.37;;;3.50;;
20609;SDS011;10463;52.378;9.688;2023-11-19T15:37:54;6.40;;;3.70;;
20609;SDS011;10463;52.378;9.688;2023-11-19T15:40:40;6.33;;;4.13;;
20609;SDS011;10463;52.378;9.688;2023-11-19T15:43:26;7.10;;;4.07;;
20609;SDS011;10463;52.378;9.688;2023-11-19T15:46:11;7.93;;;5.07;;
20609;SDS011;10463;52.378;9.688;2023-11-19T15:48:57;5.27;;;3.70;;
20609;SDS011;10463;52.378;9.688;2023-11-19T15:51:41;6.40;;;4.47;;
20609;SDS011;10463;52.378;9.688;2023-11-19T15:54:26;5.30;;;3.63;;
20609;SDS011;10463;52.378;9.688;2023-11-19T15:57:11;6.67;;;4.67;;
20609;SDS011;10463;52.378;9.688;2023-11-19T15:59:55;6.17;;;4.27;;
20609;SDS011;10463;52.378;9.688;2023-11-19T16:02:40;8.90;;;4.07;;
20609;SDS011;10463;52.378;9.688;2023-11-19T16:05:26;7.20;;;4.37;;
20609;SDS011;10463;52.378;9.688;2023-11-19T16:08:11;6.40;;;4.53;;
20609;SDS011;10463;52.378;9.688;2023-11-19T16:10:56;7.37;;;4.60;;
20609;SDS011;10463;52.378;9.688;2023-11-19T16:13:40;7.67;;;4.67;;
20609;SDS011;10463;52.378;9.688;2023-11-19T16:16:25;8.87;;;5.70;;
20609;SDS011;10463;52.378;9.688;2023-11-19T16:19:09;4.63;;;3.60;;
20609;SDS011;10463;52.378;9.688;2023-11-19T16:21:55;7.47;;;4.50;;
20609;SDS011;10463;52.378;9.688;2023-11-19T16:24:40;7.30;;;5.10;;
20609;SDS011;10463;52.378;9.688;2023-11-19T16:27:25;8.73;;;4.70;;
20609;SDS011;10463;52.378;9.688;2023-11-19T16:30:11;8.70;;;5.30;;
20609;SDS011;10463;52.378;9.688;2023-11-19T16:32:57;8.10;;;5.60;;
20609;SDS011;10463;52.378;9.688;2023-11-19T16:35:45;8.80;;;5.50;;
20609;SDS011;10463;52.378;9.688;2023-11-19T16:38:31;11.27;;;5.90;;
20609;SDS011;10463;52.378;9.688;2023-11-19T16:41:18;10.40;;;6.50;;
20609;SDS011;10463;52.378;9.688;2023-11-19T16:44:05;7.70;;;5.97;;
20609;SDS011;10463;52.378;9.688;2023-11-19T16:46:51;9.87;;;7.23;;
20609;SDS011;10463;52.378;9.688;2023-11-19T16:49:35;9.43;;;7.50;;